My Meet Scores
Angelina Abusara, Gym Kinetics Gymnastics - MyMeetScores.com
Top100 | Top Teams | Upcoming Meets | Completed Meets | Latest | Add Scores | Help| Support | Bookmark and Share

Angelina Abusara, Gym Kinetics Gymnastics
Personal Bests
LevelVault BarsBeamFloorAA
39.5509.350 9.4259.60037.250
48.8259.300 9.4509.30036.625
59.2259.225 9.2509.35036.575
78.3759.000 8.7509.50034.975
Meet Scores
Date Meet Team Session Level Division Vault Bars Beam Floor AA
2019-01-11 St Jude Benefit Meet Gym Kinetics Gymnastics 5B 7 Sr A 8.375 16 9.000 12 8.100 15 9.500 9T 34.975 14
2018-12-14 2018 Aspire Classic Gym Kinetics Gymnastics 10B 7 Middle 0.000 16 8.750 13 8.750 13 9.400 4 26.900 16
2018-03-08 Level 4 & 5 State Gym Kinetics Gymnastics 11 5 Jr C 9.100 21T 8.900 10T 9.225 11 9.350 8 36.575 10
2018-02-23 Kinetic Classic Gym Kinetics Gymnastics 8 5 Middle 9.200 21T 8.825 57T 8.800 51T 9.300 27T 36.125 35T
2018-02-09 Arizona Sunrays Classic Rock Invitational Gym Kinetics Gymnastics R05 5 SrA 9.000 7 9.225 3 8.750 11 8.900 7 35.875 5
2018-02-03 Midwest Games Gym Kinetics Gymnastics 7 5 SR 9.225 6 8.950 7 9.250 8T 9.100 10T 36.525 8
2018-01-19 2018 Bravo Classic Gym Kinetics Gymnastics 3B 5 Jr 9.200 11T 9.100 12 8.350 22 8.700 21T 35.350 19
2017-12-15 2017 Aspire Classic Gym Kinetics Gymnastics 6A 5 Older 8.900 7T 9.150 3 9.000 4 9.350 5 36.400 3
2017-03-10 2017 Illinois Level 4 State Championships Gym Kinetics Gymnastics 5 4 Jr B 8.825 15 9.175 11 9.425 7T 9.200 10T 36.625 12
2017-02-24 Kinetic Classic Gym Kinetics Gymnastics 5,6 4 All Ages 8.800 57T 9.300 26T 9.450 12T 9.075 47T 36.625 22
2017-02-09 Hal's Harley-Davidson Invite Gym Kinetics Gymnastics O10 4 10 yrs. 8.225 15 8.875 7 9.450 4 8.975 4 35.525 3
2017-01-13 St Jude Benefit Meet Gym Kinetics Gymnastics 4A 4 Jr C 8.750 6T 9.300 6 9.350 3T 9.000 7 36.400 3
2016-12-16 2016 Aspire Classic Gym Kinetics Gymnastics 7 4 Middle 8.725 9 9.250 7 9.300 11 9.300 7T 36.575 6
2016-03-04 2016 Illinois Level 3 State Championships Gym Kinetics Gymnastics 3 Junior-D 9.550 4 8.700 15 9.400 2 9.500 6 37.150 5
2016-02-20 Big Classic Gym Kinetics Gymnastics 8B 3 Child C 9.375 3T 9.200 7 9.025 5 9.275 3T 36.875 5
2016-01-15 2016 Bravo Classic Gym Kinetics Gymnastics 3A 3 9+yrs 9.275 5 9.300 6 9.425 2 9.250 5T 37.250 4
2015-03-12 2015 Illinois Level 3 State Championship Gym Kinetics Gymnastics All 3 Youth-D 9.200 19 9.350 9 9.225 10 9.225 13 37.000 11
2015-02-21 BIG Classic Gym Kinetics Gymnastics 3A 3 Child B 9.150 9T 9.150 4 9.225 5 9.500 3 37.025 4
2015-01-23 King Arthur Invitational Gym Kinetics Gymnastics 11A 3 SrA 9.125 10 9.300 4 8.775 9 9.600 2 36.800 5
2015-01-09 Legacy Elite Winter Classic 2015 Flipstar Gymnastics Academy 5B 3 Ch C 9.150 10T 8.125 15 9.225 2 9.050 6T 35.550 8
Get your scores on
a t-shirt, pin, or hoodie

www.lazysuits.com